Accueil
METAR-TAF:

METAR-TAF

Aéroports :

Wattisham, Angleterre

latitude: 52-07N, longitude: 000-58E, altitude: 87 m

Observation

Le bulletin a été fait il y a 1 heure et 3 minutes, à 00:50 UTC
Vent 13 kt de ouest/sud-ouest
Température 17°C
Humidité 77%
Pression 1013 hPa
Visibilité 10 km ou plus

METAR: EGUW 240050Z AUTO 25013KT 9999 SCT080/// BKN110/// 17/13 Q1013

Heure: 02:53 (01:53 UTC)

Prévision

Le bulletin a été fait il y a 12 heures et 16 minutes, à 13:37 UTC
Prévision valable du 23 à 15 UTC au 23 à 19 UTC
Vent 14 kt de ouest
Visibilité 10 km ou plus
Nuages épars à une hauteur de 3500 ft
Temporairement
du 23 à 15 UTC au 23 à 19 UTC
Vent 15 kt de ouest avec des rafales jusqu'à 25 kt

TAF: EGUW 231337Z 2315/2319 27014KT 9999 SCT035 TEMPO 2315/2319 26015G25KT

Observations et prévisions météorologiques de plus de 4000 aéroports (messages METAR et TAF).

Les stations disponibles sont représentées par des disques jaunes et rouges sur la carte.

Passer la souris dessus pour voir le nom de la station.

Cliquer dessus pour voir les observations et prévisions météorologiques.

Pour changer de carte: cliquez sur les boutons verts avec une croix noire pour zoomer, sur le bouton vert avec un tiret pour effectuer un zoom arrière, ou sur les flèches vertes pour les cartes adjacentes.


METAR-TAF: